createdAt,value
2023-01-06T00:00:39.516Z,1.67
2023-01-06T00:01:41.675Z,1.50
2023-01-06T00:02:45.465Z,1.50
2023-01-06T00:03:51.871Z,1.55
2023-01-06T00:04:53.774Z,1.25
2023-01-06T00:06:00.593Z,1.30
2023-01-06T00:07:02.479Z,1.38
2023-01-06T00:08:04.400Z,1.48
2023-01-06T00:09:06.263Z,1.83
2023-01-06T00:10:08.572Z,1.70
2023-01-06T00:11:15.284Z,1.80
2023-01-06T00:12:17.048Z,1.50
2023-01-06T00:13:19.133Z,1.80
2023-01-06T00:14:21.061Z,1.60
2023-01-06T00:15:22.981Z,1.52
2023-01-06T00:16:25.138Z,1.58
2023-01-06T00:17:26.933Z,1.60
2023-01-06T00:18:28.728Z,1.30
2023-01-06T00:19:30.809Z,1.33
2023-01-06T00:20:34.211Z,1.50
2023-01-06T00:21:36.062Z,1.08
2023-01-06T00:22:40.768Z,1.65
2023-01-06T00:23:42.937Z,1.40
2023-01-06T00:24:44.765Z,1.20
2023-01-06T00:25:50.878Z,1.60
2023-01-06T00:26:52.749Z,1.48
2023-01-06T00:27:55.919Z,1.40
2023-01-06T00:28:58.305Z,1.45
2023-01-06T00:30:01.065Z,1.48
2023-01-06T00:31:11.821Z,1.58
2023-01-06T00:32:15.473Z,1.33
2023-01-06T00:33:17.337Z,1.30
2023-01-06T00:34:19.269Z,1.70
2023-01-06T00:35:21.076Z,1.60
2023-01-06T00:36:23.787Z,1.50
2023-01-06T00:37:25.667Z,1.60
2023-01-06T00:38:27.786Z,1.50
2023-01-06T00:39:30.726Z,1.55
2023-01-06T00:40:32.553Z,1.45
2023-01-06T00:41:52.834Z,1.52
2023-01-06T00:42:54.665Z,1.60
2023-01-06T00:43:57.996Z,1.50
2023-01-06T00:45:00.498Z,1.80
2023-01-06T00:46:02.331Z,1.58
2023-01-06T00:47:06.590Z,1.50
2023-01-06T00:48:08.553Z,1.63
2023-01-06T00:49:11.127Z,1.73
2023-01-06T00:50:13.793Z,1.77
2023-01-06T00:51:15.563Z,1.75
2023-01-06T00:52:17.393Z,1.65
2023-01-06T00:53:19.140Z,1.70
2023-01-06T00:54:21.524Z,1.60
2023-01-06T00:55:23.459Z,1.40
2023-01-06T00:56:25.243Z,1.30
2023-01-06T00:57:27.168Z,1.42
2023-01-06T00:58:32.759Z,1.70
2023-01-06T00:59:35.259Z,1.70
2023-01-06T01:00:37.401Z,1.48
2023-01-06T01:01:39.707Z,1.63
2023-01-06T01:02:41.674Z,1.60
2023-01-06T01:03:44.563Z,1.55
2023-01-06T01:04:46.327Z,1.70
2023-01-06T01:05:48.264Z,1.55
2023-01-06T01:06:50.886Z,1.90
2023-01-06T01:07:52.755Z,1.88
2023-01-06T01:08:56.334Z,1.45
2023-01-06T01:09:58.125Z,1.45
2023-01-06T01:11:08.102Z,1.77
2023-01-06T01:12:12.098Z,1.48
2023-01-06T01:13:13.948Z,1.70
2023-01-06T01:14:17.907Z,1.50
2023-01-06T01:15:19.677Z,1.50
2023-01-06T01:16:21.479Z,1.52
2023-01-06T01:17:31.218Z,1.23
2023-01-06T01:18:33.721Z,1.60
2023-01-06T01:19:36.733Z,1.58
2023-01-06T01:20:38.580Z,1.33
2023-01-06T01:21:40.664Z,1.65
2023-01-06T01:22:42.487Z,1.58
2023-01-06T01:23:44.264Z,1.38
2023-01-06T01:24:47.500Z,1.50
2023-01-06T01:25:49.356Z,1.52
2023-01-06T01:26:51.239Z,1.42
2023-01-06T01:27:53.063Z,1.60
2023-01-06T01:28:55.819Z,1.52
2023-01-06T01:29:58.815Z,1.42
2023-01-06T01:31:01.847Z,1.20
2023-01-06T01:32:03.944Z,1.25
2023-01-06T01:33:05.789Z,1.45
2023-01-06T01:34:08.271Z,1.40
2023-01-06T01:35:10.236Z,1.58
2023-01-06T01:36:16.244Z,1.50
2023-01-06T01:37:18.051Z,1.40
2023-01-06T01:38:19.854Z,1.20
2023-01-06T01:39:25.452Z,1.27
2023-01-06T01:40:27.244Z,2.00
2023-01-06T01:41:30.357Z,1.60
2023-01-06T01:42:32.438Z,1.33
2023-01-06T01:43:51.455Z,1.60
2023-01-06T01:45:06.193Z,1.30
2023-01-06T01:46:08.208Z,1.42
2023-01-06T01:47:12.151Z,1.60
2023-01-06T01:48:35.024Z,1.52
2023-01-06T01:49:40.981Z,1.52
2023-01-06T01:50:46.520Z,1.42
2023-01-06T01:51:51.571Z,1.60
2023-01-06T01:53:02.419Z,1.42
2023-01-06T01:54:09.286Z,1.50
2023-01-06T01:55:12.165Z,1.48
2023-01-06T01:56:19.221Z,1.35
2023-01-06T01:57:27.727Z,1.50
2023-01-06T01:59:07.443Z,1.60
2023-01-06T02:00:10.151Z,1.55
2023-01-06T02:01:14.921Z,1.50
2023-01-06T02:02:18.116Z,2.00
2023-01-06T02:03:22.058Z,1.90
2023-01-06T02:04:26.267Z,1.40
2023-01-06T02:05:29.248Z,2.10
2023-01-06T02:06:31.255Z,1.50
2023-01-06T02:07:33.262Z,1.63
2023-01-06T02:08:47.691Z,1.77
2023-01-06T02:10:04.773Z,1.80
2023-01-06T02:11:08.522Z,1.60
2023-01-06T02:12:10.508Z,1.60
2023-01-06T02:13:12.568Z,1.85
2023-01-06T02:14:17.785Z,2.10
2023-01-06T02:15:24.145Z,1.90
2023-01-06T02:16:52.797Z,1.65
2023-01-06T02:18:11.475Z,1.90
2023-01-06T02:19:34.588Z,1.58
2023-01-06T02:21:06.951Z,1.70
2023-01-06T02:22:33.610Z,1.70
2023-01-06T02:23:56.363Z,1.75
2023-01-06T02:25:11.906Z,1.70
2023-01-06T02:26:37.168Z,1.70
2023-01-06T02:27:51.560Z,2.00
2023-01-06T02:29:27.707Z,1.92
2023-01-06T02:31:00.558Z,1.65
2023-01-06T02:32:17.208Z,1.95
2023-01-06T02:33:47.363Z,1.98
2023-01-06T02:35:22.867Z,1.70
2023-01-06T02:36:49.225Z,1.70
2023-01-06T02:38:28.583Z,1.60
2023-01-06T02:39:39.750Z,1.63
2023-01-06T02:40:52.088Z,1.70
2023-01-06T02:42:06.949Z,1.38
2023-01-06T02:43:42.651Z,1.50
2023-01-06T02:45:04.079Z,1.52
2023-01-06T02:46:24.771Z,1.83
2023-01-06T02:47:44.415Z,1.60
2023-01-06T02:48:52.457Z,1.70
2023-01-06T02:50:02.738Z,1.73
2023-01-06T02:51:10.604Z,1.60
2023-01-06T02:52:31.706Z,1.88
2023-01-06T02:53:33.853Z,1.50
2023-01-06T02:54:54.118Z,1.52
2023-01-06T02:55:57.265Z,1.85
2023-01-06T02:57:20.773Z,1.58
2023-01-06T02:58:33.814Z,1.40
2023-01-06T02:59:45.852Z,1.65
2023-01-06T03:00:57.561Z,1.30
2023-01-06T03:02:01.809Z,1.50
2023-01-06T03:03:13.178Z,1.40
2023-01-06T03:04:19.239Z,1.70
2023-01-06T03:05:24.986Z,1.63
2023-01-06T03:06:32.075Z,1.50
2023-01-06T03:07:38.375Z,1.50
2023-01-06T03:08:41.536Z,1.50
2023-01-06T03:09:45.086Z,1.17
2023-01-06T03:10:48.750Z,1.60
2023-01-06T03:11:51.916Z,1.48
2023-01-06T03:13:01.393Z,1.38
2023-01-06T03:14:14.007Z,1.25
2023-01-06T03:15:15.918Z,1.52
2023-01-06T03:16:18.189Z,1.15
2023-01-06T03:17:20.108Z,1.27
2023-01-06T03:18:23.171Z,1.58
2023-01-06T03:19:25.508Z,1.20
2023-01-06T03:20:28.672Z,1.20
2023-01-06T03:21:35.367Z,1.00
2023-01-06T03:22:40.159Z,1.02
2023-01-06T03:23:43.108Z,0.90
2023-01-06T03:24:45.451Z,1.05
2023-01-06T03:25:47.852Z,1.25
2023-01-06T03:26:51.211Z,0.80
2023-01-06T03:27:53.891Z,1.02
2023-01-06T03:28:57.970Z,0.90
2023-01-06T03:30:03.545Z,1.08
2023-01-06T03:31:25.829Z,0.80
2023-01-06T03:32:37.480Z,0.90
2023-01-06T03:34:01.621Z,0.80
2023-01-06T03:35:18.418Z,0.90
2023-01-06T03:36:20.185Z,0.90
2023-01-06T03:37:25.053Z,0.88
2023-01-06T03:38:38.937Z,0.70
2023-01-06T03:39:58.779Z,0.93
2023-01-06T03:41:13.881Z,0.77
2023-01-06T03:43:00.971Z,0.90
2023-01-06T03:44:11.871Z,0.60
2023-01-06T03:45:35.484Z,0.45
2023-01-06T03:46:44.717Z,0.60
2023-01-06T03:47:54.065Z,0.70
2023-01-06T03:49:18.797Z,0.60
2023-01-06T03:50:28.875Z,0.60
2023-01-06T03:51:45.751Z,0.60
2023-01-06T03:52:59.923Z,0.43
2023-01-06T03:54:09.099Z,0.38
2023-01-06T03:55:21.980Z,0.47
2023-01-06T03:56:32.181Z,0.68
2023-01-06T03:57:40.042Z,0.50
2023-01-06T03:58:48.681Z,0.52
2023-01-06T04:00:24.656Z,0.52
2023-01-06T04:01:34.368Z,0.47
2023-01-06T04:02:39.979Z,0.38
2023-01-06T04:03:48.276Z,0.50
2023-01-06T04:05:29.190Z,0.30
2023-01-06T04:06:33.384Z,0.50
2023-01-06T04:07:40.313Z,0.57
2023-01-06T04:08:43.300Z,0.43
2023-01-06T04:09:45.581Z,0.60
2023-01-06T04:10:47.799Z,0.60
2023-01-06T04:12:08.963Z,0.43
2023-01-06T04:13:13.404Z,0.30
2023-01-06T04:14:15.194Z,0.50
2023-01-06T04:15:20.703Z,0.47
2023-01-06T04:16:23.592Z,0.55
2023-01-06T04:17:25.453Z,0.65
2023-01-06T04:18:27.246Z,0.50
2023-01-06T04:19:29.046Z,0.70
2023-01-06T04:20:32.222Z,0.40
2023-01-06T04:21:56.587Z,0.50
2023-01-06T04:23:00.323Z,0.50
2023-01-06T04:24:07.870Z,0.40
2023-01-06T04:25:11.454Z,0.47
2023-01-06T04:26:15.151Z,0.30
2023-01-06T04:27:22.573Z,0.50
2023-01-06T04:28:24.423Z,0.40
2023-01-06T04:29:27.325Z,0.40
2023-01-06T04:30:31.034Z,0.50
2023-01-06T04:31:35.340Z,0.32
2023-01-06T04:32:37.904Z,0.30
2023-01-06T04:33:42.221Z,0.40
2023-01-06T04:34:46.431Z,0.57
2023-01-06T04:35:48.499Z,0.40
2023-01-06T04:36:53.368Z,0.30
2023-01-06T04:37:55.332Z,0.45
2023-01-06T04:38:57.159Z,0.50
2023-01-06T04:39:58.935Z,0.60
2023-01-06T04:41:00.704Z,0.35
2023-01-06T04:42:02.476Z,0.60
2023-01-06T04:43:04.299Z,0.40
2023-01-06T04:44:06.153Z,0.40
2023-01-06T04:45:08.420Z,0.60
2023-01-06T04:46:10.313Z,0.30
2023-01-06T04:47:12.096Z,0.55
2023-01-06T04:48:14.361Z,0.50
2023-01-06T04:49:16.316Z,0.40
2023-01-06T04:50:18.110Z,0.40
2023-01-06T04:51:19.875Z,0.40
2023-01-06T04:52:21.732Z,0.38
2023-01-06T04:53:23.625Z,0.50
2023-01-06T04:54:25.675Z,0.50
2023-01-06T04:55:27.863Z,0.40
2023-01-06T04:56:29.758Z,0.40
2023-01-06T04:57:31.549Z,0.57
2023-01-06T04:58:33.934Z,0.52
2023-01-06T04:59:35.715Z,0.40
2023-01-06T05:00:37.627Z,0.45
2023-01-06T05:01:39.574Z,0.50
2023-01-06T05:02:41.432Z,0.30
2023-01-06T05:03:43.323Z,0.40
2023-01-06T05:04:47.968Z,0.40
2023-01-06T05:05:50.001Z,0.40
2023-01-06T05:06:51.836Z,0.47
2023-01-06T05:07:54.671Z,0.30
2023-01-06T05:08:56.455Z,0.50
2023-01-06T05:09:58.363Z,0.30
2023-01-06T05:11:09.325Z,0.40
2023-01-06T05:12:11.134Z,0.55
2023-01-06T05:13:12.979Z,0.30
2023-01-06T05:14:14.772Z,0.65
2023-01-06T05:15:16.553Z,0.65
2023-01-06T05:16:24.570Z,0.38
2023-01-06T05:17:27.039Z,0.30
2023-01-06T05:18:28.815Z,0.40
2023-01-06T05:19:30.590Z,0.57
2023-01-06T05:20:32.420Z,0.60
2023-01-06T05:21:34.208Z,0.50
2023-01-06T05:22:36.019Z,0.50
2023-01-06T05:23:39.261Z,0.40
2023-01-06T05:24:41.259Z,0.50
2023-01-06T05:25:43.074Z,0.30
2023-01-06T05:26:44.931Z,0.50
2023-01-06T05:27:46.691Z,0.40
2023-01-06T05:28:49.600Z,0.57
2023-01-06T05:29:51.435Z,0.40
2023-01-06T05:30:54.070Z,0.30
2023-01-06T05:31:55.955Z,0.32
2023-01-06T05:32:57.838Z,0.40
2023-01-06T05:33:59.645Z,0.50
2023-01-06T05:35:01.530Z,0.38
2023-01-06T05:36:05.941Z,0.40
2023-01-06T05:37:07.714Z,0.40
2023-01-06T05:38:09.592Z,0.47
2023-01-06T05:39:11.581Z,0.63
2023-01-06T05:40:13.391Z,0.40
2023-01-06T05:41:15.239Z,0.38
2023-01-06T05:42:17.768Z,0.40
2023-01-06T05:43:23.373Z,0.45
2023-01-06T05:44:25.137Z,0.30
2023-01-06T05:45:27.088Z,0.50
2023-01-06T05:46:28.929Z,0.30
2023-01-06T05:47:30.707Z,0.25
2023-01-06T05:48:32.642Z,0.40
2023-01-06T05:49:34.524Z,0.47
2023-01-06T05:50:36.317Z,0.45
2023-01-06T05:51:38.452Z,0.32
2023-01-06T05:52:40.279Z,0.35
2023-01-06T05:53:44.329Z,0.40
2023-01-06T05:54:46.959Z,0.45
2023-01-06T05:55:48.716Z,0.50
2023-01-06T05:56:50.557Z,0.30
2023-01-06T05:57:52.313Z,0.47
2023-01-06T05:58:54.499Z,0.40
2023-01-06T05:59:56.351Z,0.50
2023-01-06T06:00:58.164Z,0.40
2023-01-06T06:01:59.991Z,0.38
2023-01-06T06:03:01.800Z,0.40
2023-01-06T06:04:03.793Z,0.40
2023-01-06T06:05:05.842Z,0.38
2023-01-06T06:06:07.819Z,0.32
2023-01-06T06:07:09.585Z,0.40
2023-01-06T06:08:11.518Z,0.30
2023-01-06T06:09:13.368Z,0.30
2023-01-06T06:10:15.192Z,0.50
2023-01-06T06:11:19.495Z,0.22
2023-01-06T06:12:21.268Z,0.43
2023-01-06T06:13:24.427Z,0.43
2023-01-06T06:14:26.973Z,0.30
2023-01-06T06:15:28.777Z,0.30
2023-01-06T06:16:30.720Z,0.40
2023-01-06T06:17:32.609Z,0.30
2023-01-06T06:18:36.455Z,0.50
2023-01-06T06:19:38.260Z,0.30
2023-01-06T06:20:40.117Z,0.50
2023-01-06T06:21:42.063Z,0.55
2023-01-06T06:22:43.840Z,0.40
2023-01-06T06:23:45.651Z,0.30
2023-01-06T06:24:47.523Z,0.30
2023-01-06T06:25:50.276Z,0.30
2023-01-06T06:26:52.071Z,0.40
2023-01-06T06:27:57.901Z,0.40
2023-01-06T06:28:59.705Z,0.50
2023-01-06T06:30:01.517Z,0.35
2023-01-06T06:31:25.658Z,0.35
2023-01-06T06:32:31.077Z,0.40
2023-01-06T06:33:33.424Z,0.30
2023-01-06T06:34:35.215Z,0.50
2023-01-06T06:35:37.121Z,0.40
2023-01-06T06:36:38.879Z,0.65
2023-01-06T06:37:40.645Z,0.38
2023-01-06T06:38:47.159Z,0.35
2023-01-06T06:39:49.057Z,0.40
2023-01-06T06:40:50.946Z,0.60
2023-01-06T06:41:52.792Z,0.43
2023-01-06T06:42:54.598Z,0.35
2023-01-06T06:43:56.547Z,0.40
2023-01-06T06:44:58.403Z,0.30
2023-01-06T06:46:00.292Z,0.40
2023-01-06T06:47:02.125Z,0.30
2023-01-06T06:48:04.124Z,0.50
2023-01-06T06:49:05.991Z,0.40
2023-01-06T06:50:13.783Z,0.35
2023-01-06T06:51:17.728Z,0.30
2023-01-06T06:52:19.647Z,0.28
2023-01-06T06:53:21.491Z,0.38
2023-01-06T06:54:23.307Z,0.40
2023-01-06T06:55:25.139Z,0.40
2023-01-06T06:56:26.934Z,0.30
2023-01-06T06:57:28.816Z,0.40
2023-01-06T06:58:30.733Z,0.38
2023-01-06T06:59:32.487Z,0.60
2023-01-06T07:00:34.302Z,0.38
2023-01-06T07:01:36.240Z,0.50
2023-01-06T07:02:38.084Z,0.68
2023-01-06T07:03:40.039Z,0.50
2023-01-06T07:04:41.908Z,0.45
2023-01-06T07:05:45.202Z,0.60
2023-01-06T07:06:46.993Z,0.43
2023-01-06T07:07:48.815Z,0.30
2023-01-06T07:08:51.073Z,0.40
2023-01-06T07:09:52.880Z,0.50
2023-01-06T07:10:54.800Z,0.50
2023-01-06T07:11:56.651Z,0.30
2023-01-06T07:12:58.405Z,0.30
2023-01-06T07:14:00.172Z,0.50
2023-01-06T07:15:02.044Z,0.50
2023-01-06T07:16:04.636Z,0.50
2023-01-06T07:17:06.421Z,0.40
2023-01-06T07:18:08.373Z,0.40
2023-01-06T07:19:10.509Z,0.50
2023-01-06T07:20:13.578Z,0.40
2023-01-06T07:21:15.505Z,0.40
2023-01-06T07:22:17.246Z,0.40
2023-01-06T07:23:19.827Z,0.38
2023-01-06T07:24:21.580Z,0.40
2023-01-06T07:25:23.991Z,0.52
2023-01-06T07:26:25.984Z,0.40
2023-01-06T07:27:27.912Z,0.40
2023-01-06T07:28:31.971Z,0.20
2023-01-06T07:29:33.747Z,0.50
2023-01-06T07:30:36.941Z,0.40
2023-01-06T07:31:38.789Z,0.43
2023-01-06T07:32:40.726Z,0.30
2023-01-06T07:33:42.535Z,0.50
2023-01-06T07:34:44.341Z,0.32
2023-01-06T07:35:46.144Z,0.30
2023-01-06T07:36:48.006Z,0.40
2023-01-06T07:37:50.026Z,0.60
2023-01-06T07:38:51.852Z,0.55
2023-01-06T07:39:53.643Z,0.52
2023-01-06T07:41:00.389Z,0.40
2023-01-06T07:42:02.295Z,0.40
2023-01-06T07:43:06.082Z,0.38
2023-01-06T07:44:07.909Z,0.60
2023-01-06T07:45:10.551Z,0.40
2023-01-06T07:46:12.434Z,0.50
2023-01-06T07:47:14.861Z,0.50
2023-01-06T07:48:17.169Z,0.50
2023-01-06T07:49:18.967Z,0.20
2023-01-06T07:50:20.780Z,0.40
2023-01-06T07:51:22.699Z,0.40
2023-01-06T07:52:24.587Z,0.40
2023-01-06T07:53:26.688Z,0.47
2023-01-06T07:54:28.544Z,0.43
2023-01-06T07:55:30.568Z,0.45
2023-01-06T07:56:32.498Z,0.50
2023-01-06T07:57:34.439Z,0.55
2023-01-06T07:58:36.269Z,0.32
2023-01-06T07:59:38.041Z,0.50
2023-01-06T08:00:39.817Z,0.40
2023-01-06T08:01:41.658Z,0.40
2023-01-06T08:02:43.743Z,0.40
2023-01-06T08:03:45.607Z,0.20
2023-01-06T08:04:47.712Z,0.60
2023-01-06T08:05:49.957Z,0.30
2023-01-06T08:06:51.779Z,0.32
2023-01-06T08:07:53.644Z,0.17
2023-01-06T08:08:55.443Z,0.30
2023-01-06T08:09:57.193Z,0.30
2023-01-06T08:10:59.133Z,0.38
2023-01-06T08:12:01.120Z,0.20
2023-01-06T08:13:02.968Z,0.40
2023-01-06T08:14:04.743Z,0.40
2023-01-06T08:15:07.222Z,0.40
2023-01-06T08:16:11.235Z,0.22
2023-01-06T08:17:14.260Z,0.22
2023-01-06T08:18:16.052Z,0.30
2023-01-06T08:19:17.965Z,0.55
2023-01-06T08:20:20.333Z,0.30
2023-01-06T08:21:22.206Z,0.38
2023-01-06T08:22:24.580Z,0.30
2023-01-06T08:23:26.358Z,0.40
2023-01-06T08:24:31.867Z,0.40
2023-01-06T08:25:34.470Z,0.47
2023-01-06T08:26:36.267Z,0.40
2023-01-06T08:27:38.224Z,0.30
2023-01-06T08:28:41.028Z,0.32
2023-01-06T08:29:42.863Z,0.43
2023-01-06T08:30:44.796Z,0.40
2023-01-06T08:31:46.617Z,0.47
2023-01-06T08:32:49.166Z,0.38
2023-01-06T08:33:52.895Z,0.40
2023-01-06T08:34:54.667Z,0.40
2023-01-06T08:36:00.569Z,0.30
2023-01-06T08:37:02.447Z,0.35
2023-01-06T08:38:04.219Z,0.43
2023-01-06T08:39:06.002Z,0.40
2023-01-06T08:40:08.148Z,0.30
2023-01-06T08:41:11.261Z,0.40
2023-01-06T08:42:13.189Z,0.38
2023-01-06T08:43:15.159Z,0.35
2023-01-06T08:44:17.208Z,0.40
2023-01-06T08:45:19.032Z,0.60
2023-01-06T08:46:21.067Z,0.32
2023-01-06T08:47:23.267Z,0.30
2023-01-06T08:48:25.310Z,0.30
2023-01-06T08:49:27.237Z,0.35
2023-01-06T08:50:29.083Z,0.30
2023-01-06T08:51:31.491Z,0.30
2023-01-06T08:52:33.318Z,0.50
2023-01-06T08:53:35.301Z,0.40
2023-01-06T08:54:37.235Z,0.40
2023-01-06T08:55:40.303Z,0.50
2023-01-06T08:56:43.654Z,0.40
2023-01-06T08:57:45.515Z,0.40
2023-01-06T08:58:55.023Z,0.28
2023-01-06T08:59:56.866Z,0.40
2023-01-06T09:00:58.690Z,0.47
2023-01-06T09:02:01.506Z,0.60
2023-01-06T09:03:03.684Z,0.50
2023-01-06T09:04:07.292Z,0.65
2023-01-06T09:05:09.441Z,0.50
2023-01-06T09:06:11.749Z,0.52
2023-01-06T09:07:13.526Z,0.55
2023-01-06T09:08:15.441Z,0.55
2023-01-06T09:09:17.263Z,0.50
2023-01-06T09:10:19.831Z,0.80
2023-01-06T09:11:22.025Z,0.60
2023-01-06T09:12:23.819Z,0.55
2023-01-06T09:13:25.586Z,0.50
2023-01-06T09:14:27.426Z,0.40
2023-01-06T09:15:29.318Z,0.47
2023-01-06T09:16:31.110Z,0.47
2023-01-06T09:17:32.916Z,0.47
2023-01-06T09:18:35.116Z,0.57
2023-01-06T09:19:36.886Z,0.75
2023-01-06T09:20:38.786Z,0.70
2023-01-06T09:21:42.952Z,0.40
2023-01-06T09:22:45.917Z,0.73
2023-01-06T09:23:48.013Z,0.60
2023-01-06T09:24:49.848Z,0.73
2023-01-06T09:25:51.721Z,0.88
2023-01-06T09:26:53.504Z,0.73
2023-01-06T09:27:55.264Z,0.47
2023-01-06T09:28:57.039Z,0.55
2023-01-06T09:29:58.837Z,0.70
2023-01-06T09:31:01.379Z,0.50
2023-01-06T09:32:03.551Z,0.88
2023-01-06T09:33:05.409Z,0.30
2023-01-06T09:34:07.200Z,0.50
2023-01-06T09:35:09.589Z,0.50
2023-01-06T09:36:11.444Z,0.60
2023-01-06T09:37:13.279Z,0.88
2023-01-06T09:38:16.990Z,0.82
2023-01-06T09:39:19.602Z,0.60
2023-01-06T09:40:29.334Z,0.63
2023-01-06T09:41:39.842Z,0.60
2023-01-06T09:42:53.475Z,0.85
2023-01-06T09:43:55.323Z,0.60
2023-01-06T09:45:00.166Z,0.70
2023-01-06T09:46:05.096Z,0.60
2023-01-06T09:47:13.126Z,0.75
2023-01-06T09:48:21.779Z,0.50
2023-01-06T09:50:12.176Z,0.60
2023-01-06T09:51:21.248Z,0.50
2023-01-06T09:52:37.013Z,0.70
2023-01-06T09:53:43.552Z,0.77
2023-01-06T09:55:03.466Z,0.60
2023-01-06T09:56:12.412Z,0.60
2023-01-06T09:57:22.452Z,0.82
2023-01-06T09:58:42.016Z,0.70
2023-01-06T09:59:52.374Z,0.80
2023-01-06T10:00:56.904Z,0.90
2023-01-06T10:02:00.898Z,0.90
2023-01-06T10:03:03.716Z,0.70
2023-01-06T10:04:05.897Z,0.65
2023-01-06T10:05:23.038Z,0.70
2023-01-06T10:06:40.351Z,0.75
2023-01-06T10:08:22.709Z,0.95
2023-01-06T10:09:32.448Z,1.10
2023-01-06T10:10:45.986Z,0.70
2023-01-06T10:12:19.916Z,0.95
2023-01-06T10:13:55.525Z,0.77
2023-01-06T10:15:25.935Z,0.80
2023-01-06T10:16:47.413Z,0.80
2023-01-06T10:18:18.443Z,0.68
2023-01-06T10:19:59.027Z,0.90
2023-01-06T10:21:14.868Z,0.90
2023-01-06T10:22:55.836Z,0.73
2023-01-06T10:23:57.577Z,0.80
2023-01-06T10:25:08.249Z,0.90
2023-01-06T10:26:24.868Z,0.95
2023-01-06T10:27:35.362Z,0.98
2023-01-06T10:28:42.623Z,1.17
2023-01-06T10:29:44.409Z,1.10
2023-01-06T10:30:50.598Z,0.93
2023-01-06T10:31:54.550Z,0.90
2023-01-06T10:32:57.037Z,0.90
2023-01-06T10:33:59.572Z,0.80
2023-01-06T10:35:02.346Z,0.85
2023-01-06T10:36:10.933Z,0.80
2023-01-06T10:37:24.990Z,0.93
2023-01-06T10:38:55.916Z,0.90
2023-01-06T10:40:25.465Z,1.10
2023-01-06T10:42:21.474Z,1.02
2023-01-06T10:43:23.697Z,1.08
2023-01-06T10:44:25.570Z,0.93
2023-01-06T10:45:30.250Z,1.02
2023-01-06T10:46:35.473Z,0.93
2023-01-06T10:47:37.815Z,1.00
2023-01-06T10:48:40.312Z,0.90
2023-01-06T10:49:42.099Z,1.20
2023-01-06T10:50:44.245Z,1.38
2023-01-06T10:52:00.404Z,1.10
2023-01-06T10:53:02.350Z,1.05
2023-01-06T10:54:10.163Z,0.90
2023-01-06T10:55:34.071Z,1.17
2023-01-06T10:56:36.775Z,0.90
2023-01-06T10:57:40.710Z,1.08
2023-01-06T10:58:48.645Z,1.08
2023-01-06T11:00:08.961Z,0.93
2023-01-06T11:01:15.752Z,1.40
2023-01-06T11:02:24.298Z,1.10
2023-01-06T11:03:35.000Z,1.10
2023-01-06T11:04:50.935Z,1.00
2023-01-06T11:06:05.241Z,1.08
2023-01-06T11:07:11.278Z,1.00
2023-01-06T11:08:15.755Z,0.93
2023-01-06T11:09:36.231Z,1.00
2023-01-06T11:10:43.691Z,1.23
2023-01-06T11:11:48.711Z,1.05
2023-01-06T11:12:51.155Z,1.48
2023-01-06T11:13:56.509Z,1.20
2023-01-06T11:15:01.700Z,1.10
2023-01-06T11:16:06.783Z,0.75
2023-01-06T11:17:15.890Z,1.10
2023-01-06T11:18:22.042Z,0.82
2023-01-06T11:19:33.841Z,0.93
2023-01-06T11:20:35.611Z,1.02
2023-01-06T11:21:44.132Z,1.35
2023-01-06T11:22:46.970Z,1.38
2023-01-06T11:23:49.199Z,1.40
2023-01-06T11:24:53.807Z,1.10
2023-01-06T11:26:16.630Z,1.20
2023-01-06T11:27:18.453Z,1.35
2023-01-06T11:28:21.395Z,1.10
2023-01-06T11:29:27.942Z,0.90
2023-01-06T11:30:29.735Z,1.27
2023-01-06T11:31:31.733Z,0.98
2023-01-06T11:32:33.668Z,1.10
2023-01-06T11:33:38.462Z,1.10
2023-01-06T11:34:44.479Z,1.48
2023-01-06T11:35:50.235Z,0.93
2023-01-06T11:36:53.152Z,1.00
2023-01-06T11:38:00.029Z,1.10
2023-01-06T11:39:21.723Z,1.30
2023-01-06T11:40:34.542Z,1.02
2023-01-06T11:41:41.512Z,1.25
2023-01-06T11:42:43.677Z,1.30
2023-01-06T11:43:47.261Z,1.50
2023-01-06T11:44:51.093Z,1.30
2023-01-06T11:45:57.474Z,1.40
2023-01-06T11:47:05.236Z,1.55
2023-01-06T11:48:20.067Z,1.20
2023-01-06T11:49:43.094Z,1.20
2023-01-06T11:51:03.255Z,1.55
2023-01-06T11:52:18.921Z,1.30
2023-01-06T11:53:21.694Z,1.40
2023-01-06T11:54:34.587Z,1.58
2023-01-06T11:55:36.745Z,1.52
2023-01-06T11:56:38.671Z,1.50
2023-01-06T11:58:08.748Z,1.30
2023-01-06T11:59:14.887Z,1.63
2023-01-06T12:00:33.355Z,1.45
2023-01-06T12:01:52.418Z,1.48
2023-01-06T12:03:07.643Z,1.27
2023-01-06T12:05:01.112Z,1.40
2023-01-06T12:06:20.985Z,1.33
2023-01-06T12:07:43.753Z,1.15
2023-01-06T12:08:57.933Z,1.30
2023-01-06T12:10:10.760Z,1.10
2023-01-06T12:11:19.297Z,0.90
2023-01-06T12:12:26.154Z,1.08
2023-01-06T12:13:27.970Z,0.90
2023-01-06T12:14:34.364Z,1.13
2023-01-06T12:15:38.604Z,1.08
2023-01-06T12:17:05.929Z,0.90
2023-01-06T12:18:16.662Z,1.20
2023-01-06T12:19:27.102Z,1.08
2023-01-06T12:20:41.525Z,1.10
2023-01-06T12:21:43.312Z,1.02
2023-01-06T12:22:49.726Z,1.00
2023-01-06T12:23:53.432Z,0.77
2023-01-06T12:24:58.096Z,0.90
2023-01-06T12:26:03.654Z,0.90
2023-01-06T12:27:06.624Z,1.00
2023-01-06T12:28:28.238Z,0.82
2023-01-06T12:29:32.092Z,1.00
2023-01-06T12:30:33.861Z,0.82
2023-01-06T12:31:47.422Z,0.82
2023-01-06T12:32:52.871Z,1.00
2023-01-06T12:34:01.838Z,0.80
2023-01-06T12:35:05.332Z,0.75
2023-01-06T12:36:31.106Z,0.88
2023-01-06T12:37:40.881Z,0.93
2023-01-06T12:39:06.296Z,0.85
2023-01-06T12:40:37.002Z,0.80
2023-01-06T12:41:49.327Z,0.80
2023-01-06T12:43:20.185Z,0.82
2023-01-06T12:45:16.214Z,0.80
2023-01-06T12:46:25.032Z,0.80
2023-01-06T12:47:49.679Z,0.70
2023-01-06T12:48:58.133Z,0.60
2023-01-06T12:50:31.136Z,0.60
2023-01-06T12:51:58.972Z,0.63
2023-01-06T12:53:19.767Z,0.70
2023-01-06T12:54:32.229Z,0.60
2023-01-06T12:55:41.684Z,0.50
2023-01-06T12:57:01.284Z,0.73
2023-01-06T12:58:17.864Z,0.68
2023-01-06T12:59:36.644Z,0.57
2023-01-06T13:00:49.872Z,0.60
2023-01-06T13:01:54.554Z,0.50
2023-01-06T13:03:17.999Z,0.57
2023-01-06T13:04:35.452Z,0.60
2023-01-06T13:05:47.567Z,0.40
2023-01-06T13:07:02.768Z,0.50
2023-01-06T13:08:33.514Z,0.45
2023-01-06T13:09:47.597Z,0.68
2023-01-06T13:11:03.783Z,0.50
2023-01-06T13:12:53.419Z,0.60
2023-01-06T13:14:24.868Z,0.40
2023-01-06T13:15:32.501Z,0.63
2023-01-06T13:16:45.699Z,0.50
2023-01-06T13:17:56.272Z,0.40
2023-01-06T13:19:08.717Z,0.38
2023-01-06T13:20:34.751Z,0.60
2023-01-06T13:21:38.380Z,0.50
2023-01-06T13:23:01.717Z,0.45
2023-01-06T13:24:06.257Z,0.60
2023-01-06T13:25:24.168Z,0.40
2023-01-06T13:26:29.045Z,0.40
2023-01-06T13:28:07.760Z,0.43
2023-01-06T13:29:18.925Z,0.45
2023-01-06T13:30:33.178Z,0.50
2023-01-06T13:32:14.303Z,0.50
2023-01-06T13:33:19.077Z,0.60
2023-01-06T13:34:56.291Z,0.40
2023-01-06T13:36:23.655Z,0.32
2023-01-06T13:37:49.906Z,0.70
2023-01-06T13:39:30.108Z,0.38
2023-01-06T13:40:35.784Z,0.50
2023-01-06T13:41:40.266Z,0.50
2023-01-06T13:43:06.287Z,0.50
2023-01-06T13:44:18.627Z,0.73
2023-01-06T13:45:25.205Z,0.50
2023-01-06T13:46:29.878Z,0.60
2023-01-06T13:47:32.170Z,0.40
2023-01-06T13:48:38.545Z,0.60
2023-01-06T13:49:41.503Z,0.50
2023-01-06T13:50:43.788Z,0.60
2023-01-06T13:51:46.651Z,0.50
2023-01-06T13:52:50.247Z,0.57
2023-01-06T13:53:54.730Z,0.50
2023-01-06T13:55:22.557Z,0.65
2023-01-06T13:56:26.113Z,0.70
2023-01-06T13:57:33.493Z,0.93
2023-01-06T13:58:37.101Z,0.50
2023-01-06T14:00:04.797Z,0.57
2023-01-06T14:01:19.960Z,0.70
2023-01-06T14:02:34.409Z,0.45
2023-01-06T14:03:43.302Z,0.60
2023-01-06T14:04:46.751Z,0.60
2023-01-06T14:05:50.163Z,0.50
2023-01-06T14:06:52.165Z,0.60
2023-01-06T14:08:03.052Z,0.60
2023-01-06T14:09:05.062Z,0.60
2023-01-06T14:10:23.739Z,0.65
2023-01-06T14:11:31.870Z,0.60
2023-01-06T14:12:36.693Z,0.60
2023-01-06T14:13:42.937Z,0.65
2023-01-06T14:14:44.936Z,0.55
2023-01-06T14:15:55.548Z,0.60
2023-01-06T14:16:58.332Z,0.70
2023-01-06T14:18:04.001Z,0.70
2023-01-06T14:19:19.572Z,0.70
2023-01-06T14:20:32.297Z,0.70
2023-01-06T14:21:34.337Z,0.60
2023-01-06T14:22:36.429Z,0.60
2023-01-06T14:23:48.555Z,0.75
2023-01-06T14:24:54.018Z,0.63
2023-01-06T14:25:57.302Z,0.90
2023-01-06T14:27:02.668Z,0.77
2023-01-06T14:28:07.999Z,0.80
2023-01-06T14:29:43.661Z,0.70
2023-01-06T14:30:46.955Z,0.68
2023-01-06T14:31:48.883Z,0.60
2023-01-06T14:32:50.688Z,0.57
2023-01-06T14:33:56.633Z,0.75
2023-01-06T14:35:02.296Z,0.70
2023-01-06T14:36:13.439Z,0.80
2023-01-06T14:37:17.140Z,0.60
2023-01-06T14:38:35.202Z,0.57
2023-01-06T14:39:40.303Z,0.68
2023-01-06T14:41:07.172Z,0.68
2023-01-06T14:42:18.774Z,0.93
2023-01-06T14:43:47.483Z,0.57
2023-01-06T14:44:52.556Z,0.63
2023-01-06T14:45:54.950Z,0.70
2023-01-06T14:47:02.791Z,0.68
2023-01-06T14:48:13.622Z,0.68
2023-01-06T14:49:22.413Z,0.60
2023-01-06T14:50:41.856Z,0.60
2023-01-06T14:51:50.961Z,0.65
2023-01-06T14:53:07.731Z,0.90
2023-01-06T14:54:34.099Z,0.70
2023-01-06T14:55:40.399Z,0.73
2023-01-06T14:56:52.859Z,0.60